createdAt,value
2023-03-12T00:00:20.455Z,0.20
2023-03-12T00:05:26.685Z,0.12
2023-03-12T00:10:33.051Z,0.10
2023-03-12T00:15:39.535Z,0.20
2023-03-12T00:20:45.973Z,0.05
2023-03-12T00:25:52.181Z,0.09
2023-03-12T00:30:58.819Z,0.10
2023-03-12T00:36:05.032Z,0.10
2023-03-12T00:41:11.509Z,0.10
2023-03-12T00:46:17.793Z,0.12
2023-03-12T00:51:24.249Z,0.17
2023-03-12T00:56:30.519Z,0.10
2023-03-12T01:01:36.990Z,0.08
2023-03-12T01:06:43.698Z,0.10
2023-03-12T01:11:50.024Z,0.08
2023-03-12T01:16:56.251Z,0.13
2023-03-12T01:22:02.740Z,0.10
2023-03-12T01:27:09.001Z,0.08
2023-03-12T01:32:15.581Z,0.14
2023-03-12T01:37:21.789Z,0.10
2023-03-12T01:42:28.406Z,0.10
2023-03-12T01:47:34.610Z,0.10
2023-03-12T01:52:41.108Z,0.09
2023-03-12T01:57:47.373Z,0.09
2023-03-12T02:02:54.275Z,0.10
2023-03-12T02:08:00.745Z,0.08
2023-03-12T02:13:07.342Z,0.10
2023-03-12T02:18:13.625Z,0.10
2023-03-12T02:23:20.099Z,0.06
2023-03-12T02:28:26.334Z,0.10
2023-03-12T02:33:33.022Z,0.10
2023-03-12T02:38:39.257Z,0.15
2023-03-12T02:43:45.700Z,0.10
2023-03-12T02:48:51.912Z,0.14
2023-03-12T02:53:58.360Z,0.10
2023-03-12T02:59:04.661Z,0.10
2023-03-12T03:04:11.726Z,0.07
2023-03-12T03:09:17.929Z,0.10
2023-03-12T03:14:30.758Z,0.10
2023-03-12T03:19:27.840Z,0.10
2023-03-12T03:24:34.040Z,0.10
2023-03-12T03:29:40.533Z,0.10
2023-03-12T03:34:46.793Z,0.10
2023-03-12T03:39:53.210Z,0.10
2023-03-12T03:44:59.405Z,0.10
2023-03-12T03:50:05.804Z,0.10
2023-03-12T03:55:12.080Z,0.10
2023-03-12T04:00:18.636Z,0.07
2023-03-12T04:05:24.995Z,0.17
2023-03-12T04:10:31.913Z,0.06
2023-03-12T04:15:38.219Z,0.10
2023-03-12T04:20:44.553Z,0.10
2023-03-12T04:25:50.894Z,0.09
2023-03-12T04:30:57.247Z,0.10
2023-03-12T04:36:03.451Z,0.10
2023-03-12T04:41:09.848Z,0.10
2023-03-12T04:46:16.212Z,0.10
2023-03-12T04:51:22.553Z,0.10
2023-03-12T04:56:28.833Z,0.10
2023-03-12T05:01:35.444Z,0.10
2023-03-12T05:06:42.702Z,0.10
2023-03-12T05:11:49.208Z,0.10
2023-03-12T05:16:55.470Z,0.10
2023-03-12T05:22:02.040Z,0.10
2023-03-12T05:27:08.453Z,0.10
2023-03-12T05:32:14.771Z,0.10
2023-03-12T05:37:21.030Z,0.10
2023-03-12T05:42:27.447Z,0.10
2023-03-12T05:47:34.697Z,0.10
2023-03-12T05:52:41.243Z,0.10
2023-03-12T05:57:47.475Z,0.09
2023-03-12T06:02:53.853Z,0.10
2023-03-12T06:08:00.157Z,0.10
2023-03-12T06:13:06.871Z,0.10
2023-03-12T06:18:13.186Z,0.10
2023-03-12T06:23:21.521Z,0.10
2023-03-12T06:28:25.375Z,0.10
2023-03-12T06:33:31.712Z,0.10
2023-03-12T06:38:37.998Z,0.10
2023-03-12T06:43:44.533Z,0.10
2023-03-12T06:48:50.771Z,0.10
2023-03-12T06:53:57.470Z,0.10
2023-03-12T06:59:03.763Z,0.10
2023-03-12T07:04:10.140Z,0.10
2023-03-12T07:09:16.375Z,0.10
2023-03-12T07:14:23.123Z,0.10
2023-03-12T07:19:29.326Z,0.09
2023-03-12T07:24:35.861Z,0.04
2023-03-12T07:29:42.044Z,0.00
2023-03-12T07:34:48.531Z,0.00
2023-03-12T07:39:54.968Z,0.00
2023-03-12T07:45:01.280Z,0.00
2023-03-12T07:50:07.692Z,0.01
2023-03-12T07:55:14.048Z,0.00
2023-03-12T08:00:20.195Z,0.00
2023-03-12T08:05:26.647Z,0.00
2023-03-12T08:10:32.921Z,0.00
2023-03-12T08:15:39.210Z,0.00
2023-03-12T08:20:45.466Z,0.00
2023-03-12T08:25:52.181Z,0.13
2023-03-12T08:30:58.442Z,0.01
2023-03-12T08:36:04.831Z,0.00
2023-03-12T08:41:11.038Z,0.00
2023-03-12T08:46:17.860Z,0.00
2023-03-12T08:51:24.048Z,0.06
2023-03-12T08:56:30.572Z,0.00
2023-03-12T09:01:36.842Z,0.01
2023-03-12T09:06:43.237Z,0.00
2023-03-12T09:11:49.460Z,0.00
2023-03-12T09:16:55.906Z,0.00
2023-03-12T09:22:02.209Z,0.00
2023-03-12T09:27:08.640Z,0.00
2023-03-12T09:32:14.874Z,0.10
2023-03-12T09:37:23.928Z,0.06
2023-03-12T09:42:27.272Z,0.04
2023-03-12T09:52:42.156Z,0.08
2023-03-12T09:57:48.379Z,0.00
2023-03-12T10:02:55.106Z,0.10
2023-03-12T10:08:10.528Z,0.10
2023-03-12T10:13:07.838Z,0.10
2023-03-12T10:18:14.436Z,0.11
2023-03-12T10:28:30.204Z,0.11
2023-03-12T10:33:36.721Z,0.13
2023-03-12T10:38:44.958Z,0.09
2023-03-12T10:43:51.168Z,0.02
2023-03-12T10:49:00.981Z,0.09
2023-03-12T10:54:06.425Z,0.10
2023-03-12T10:59:14.631Z,0.11
2023-03-12T11:04:19.318Z,0.07
2023-03-12T11:09:25.656Z,0.07
2023-03-12T11:14:31.937Z,0.06
2023-03-12T11:19:38.302Z,0.06
2023-03-12T11:24:44.580Z,0.10
2023-03-12T11:29:51.038Z,0.10
2023-03-12T11:34:57.295Z,0.15
2023-03-12T11:40:03.847Z,0.11
2023-03-12T11:45:10.064Z,0.10
2023-03-12T11:50:16.595Z,0.10
2023-03-12T11:55:22.928Z,0.10
2023-03-12T12:00:29.272Z,0.10
2023-03-12T12:05:35.528Z,0.10
2023-03-12T12:10:41.870Z,0.11
2023-03-12T12:15:48.158Z,0.14
2023-03-12T12:20:54.649Z,0.12
2023-03-12T12:26:00.868Z,0.11
2023-03-12T12:31:07.444Z,0.15
2023-03-12T12:36:13.769Z,0.10
2023-03-12T12:41:20.232Z,0.10
2023-03-12T12:46:26.654Z,0.09
2023-03-12T12:51:33.063Z,0.10
2023-03-12T12:56:39.399Z,0.10
2023-03-12T13:01:46.085Z,0.12
2023-03-12T13:11:53.321Z,0.10
2023-03-12T13:16:59.642Z,0.24
2023-03-12T13:22:14.587Z,0.13
2023-03-12T13:27:10.854Z,0.19
2023-03-12T13:32:17.546Z,0.10
2023-03-12T13:37:23.897Z,0.05
2023-03-12T13:42:30.264Z,0.14
2023-03-12T13:47:36.531Z,0.15
2023-03-12T13:52:43.142Z,0.10
2023-03-12T13:57:49.424Z,0.12
2023-03-12T14:02:55.800Z,0.17
2023-03-12T14:08:02.310Z,0.16
2023-03-12T14:13:09.093Z,0.19
2023-03-12T14:18:15.427Z,0.16
2023-03-12T14:23:21.888Z,0.11
2023-03-12T14:28:28.223Z,0.10
2023-03-12T14:33:34.732Z,0.10
2023-03-12T14:38:41.036Z,0.11
2023-03-12T14:43:47.618Z,0.18
2023-03-12T14:48:53.862Z,0.11
2023-03-12T14:54:00.312Z,0.09
2023-03-12T14:59:06.579Z,0.10
2023-03-12T15:04:13.029Z,0.15
2023-03-12T15:09:19.420Z,0.11
2023-03-12T15:14:26.087Z,0.21
2023-03-12T15:19:32.403Z,0.04
2023-03-12T15:24:39.111Z,0.16
2023-03-12T15:29:45.341Z,0.10
2023-03-12T15:34:51.820Z,0.15
2023-03-12T15:39:58.215Z,0.13
2023-03-12T15:45:04.680Z,0.10
2023-03-12T15:50:10.991Z,0.16
2023-03-12T15:55:17.707Z,0.10
2023-03-12T16:00:23.935Z,0.17
2023-03-12T16:05:30.382Z,0.03
2023-03-12T16:10:36.672Z,0.15
2023-03-12T16:15:43.077Z,0.18
2023-03-12T16:20:49.503Z,0.16
2023-03-12T16:25:56.002Z,0.28
2023-03-12T16:31:02.300Z,0.10
2023-03-12T16:36:08.703Z,0.24
2023-03-12T16:41:14.891Z,0.26
2023-03-12T16:46:21.314Z,0.21
2023-03-12T16:51:27.631Z,1.01
2023-03-12T16:56:34.120Z,0.70
2023-03-12T17:01:40.428Z,1.23
2023-03-12T17:06:46.892Z,0.82
2023-03-12T17:11:53.414Z,0.44
2023-03-12T17:17:00.033Z,0.83
2023-03-12T17:22:06.317Z,0.84
2023-03-12T17:27:14.524Z,1.00
2023-03-12T17:32:18.733Z,0.82
2023-03-12T17:37:25.059Z,0.62
2023-03-12T17:42:31.383Z,0.51
2023-03-12T17:47:37.933Z,0.45
2023-03-12T17:52:44.128Z,0.30
2023-03-12T17:57:50.532Z,0.73
2023-03-12T18:02:56.807Z,1.02
2023-03-12T18:08:03.335Z,0.65
2023-03-12T18:13:09.852Z,0.60
2023-03-12T18:18:16.560Z,0.54
2023-03-12T18:23:22.865Z,0.45
2023-03-12T18:28:29.182Z,0.55
2023-03-12T18:33:50.243Z,0.40
2023-03-12T18:38:36.530Z,0.24
2023-03-12T18:43:42.720Z,0.28
2023-03-12T18:48:49.161Z,0.43
2023-03-12T18:53:55.454Z,0.18
2023-03-12T18:59:01.961Z,0.32
2023-03-12T19:04:08.286Z,0.29
2023-03-12T19:09:14.987Z,0.28
2023-03-12T19:14:21.225Z,0.16
2023-03-12T19:19:27.747Z,0.37
2023-03-12T19:24:33.974Z,0.20
2023-03-12T19:29:40.328Z,0.22
2023-03-12T19:34:46.591Z,0.20
2023-03-12T19:39:53.046Z,0.11
2023-03-12T19:44:59.247Z,0.42
2023-03-12T19:50:05.654Z,0.66
2023-03-12T19:55:11.971Z,0.19
2023-03-12T20:00:18.260Z,0.30
2023-03-12T20:05:24.509Z,0.27
2023-03-12T20:10:30.869Z,0.29
2023-03-12T20:15:37.190Z,0.34
2023-03-12T20:20:51.870Z,0.23
2023-03-12T20:25:48.066Z,0.34
2023-03-12T20:30:54.485Z,0.26
2023-03-12T20:36:00.769Z,0.24
2023-03-12T20:41:07.228Z,0.46
2023-03-12T20:46:13.580Z,0.48
2023-03-12T20:51:20.060Z,0.31
2023-03-12T20:56:26.334Z,0.60
2023-03-12T21:01:32.853Z,0.41
2023-03-12T21:06:39.072Z,0.25
2023-03-12T21:11:45.355Z,0.39
2023-03-12T21:16:52.150Z,0.24
2023-03-12T21:21:58.461Z,0.42
2023-03-12T21:27:04.803Z,0.69
2023-03-12T21:32:11.232Z,0.58
2023-03-12T21:37:17.597Z,0.23
2023-03-12T21:42:24.047Z,0.22
2023-03-12T21:47:30.291Z,0.36
2023-03-12T21:52:36.671Z,0.40
2023-03-12T21:57:42.899Z,0.32
2023-03-12T22:02:49.395Z,0.40
2023-03-12T22:07:55.735Z,0.49
2023-03-12T22:13:02.148Z,0.25
2023-03-12T22:18:08.777Z,0.32
2023-03-12T22:23:15.249Z,0.25
2023-03-12T22:28:21.566Z,0.54
2023-03-12T22:33:27.988Z,0.32
2023-03-12T22:38:34.161Z,0.33
2023-03-12T22:43:40.527Z,0.27
2023-03-12T22:48:46.735Z,0.35
2023-03-12T22:53:53.303Z,0.29
2023-03-12T22:58:59.479Z,0.41
2023-03-12T23:04:05.940Z,0.21
2023-03-12T23:09:12.210Z,0.26
2023-03-12T23:14:18.863Z,0.14
2023-03-12T23:19:25.065Z,0.27
2023-03-12T23:24:31.505Z,0.24
2023-03-12T23:29:37.817Z,0.38
2023-03-12T23:34:44.319Z,0.24
2023-03-12T23:39:54.795Z,0.16
2023-03-12T23:44:56.622Z,0.28
2023-03-12T23:50:02.875Z,0.26
2023-03-12T23:55:09.275Z,0.22
